createdAt,value
2023-03-04T00:01:26.122Z,35.40
2023-03-04T00:03:54.856Z,38.30
2023-03-04T00:06:22.959Z,39.60
2023-03-04T00:08:51.200Z,41.40
2023-03-04T00:11:19.975Z,42.30
2023-03-04T00:13:48.708Z,41.80
2023-03-04T00:16:16.859Z,39.80
2023-03-04T00:18:45.034Z,42.30
2023-03-04T00:21:13.016Z,37.50
2023-03-04T00:23:42.032Z,40.40
2023-03-04T00:26:10.140Z,40.20
2023-03-04T00:28:40.033Z,37.80
2023-03-04T00:31:10.460Z,40.10
2023-03-04T00:33:38.756Z,36.80
2023-03-04T00:36:07.547Z,38.50
2023-03-04T00:38:35.733Z,38.30
2023-03-04T00:41:03.896Z,40.00
2023-03-04T00:43:33.192Z,40.00
2023-03-04T00:46:01.372Z,40.20
2023-03-04T00:48:33.550Z,38.70
2023-03-04T00:51:01.903Z,41.90
2023-03-04T00:53:29.899Z,36.50
2023-03-04T00:55:58.019Z,35.40
2023-03-04T00:58:26.298Z,39.10
2023-03-04T01:03:24.600Z,41.30
2023-03-04T01:05:53.509Z,37.10
2023-03-04T01:08:21.697Z,43.10
2023-03-04T01:10:49.693Z,35.30
2023-03-04T01:13:18.959Z,42.50
2023-03-04T01:15:47.012Z,37.90
2023-03-04T01:20:44.204Z,44.40
2023-03-04T01:23:12.269Z,39.70
2023-03-04T01:25:40.445Z,41.50
2023-03-04T01:28:08.442Z,43.20
2023-03-04T01:30:36.438Z,40.60
2023-03-04T01:33:05.931Z,43.00
2023-03-04T01:35:36.636Z,40.30
2023-03-04T01:38:05.272Z,42.70
2023-03-04T01:40:33.418Z,44.20
2023-03-04T01:43:01.469Z,37.40
2023-03-04T01:45:29.586Z,27.50
2023-03-04T01:47:58.102Z,42.40
2023-03-04T01:50:33.034Z,44.40
2023-03-04T01:53:03.358Z,37.40
2023-03-04T01:55:32.170Z,41.30
2023-03-04T01:58:00.298Z,45.60
2023-03-04T02:00:32.919Z,39.90
2023-03-04T02:03:11.420Z,40.10
2023-03-04T02:05:45.514Z,40.10
2023-03-04T02:08:13.757Z,37.40
2023-03-04T02:10:45.158Z,34.70
2023-03-04T02:13:13.168Z,37.00
2023-03-04T02:15:42.538Z,39.90
2023-03-04T02:18:24.133Z,41.10
2023-03-04T02:20:54.944Z,39.00
2023-03-04T02:23:38.435Z,39.70
2023-03-04T02:26:09.773Z,38.40
2023-03-04T02:28:37.922Z,40.80
2023-03-04T02:31:06.159Z,37.50
2023-03-04T02:33:34.244Z,41.60
2023-03-04T02:36:02.248Z,30.60
2023-03-04T02:38:30.539Z,43.00
2023-03-04T02:40:58.841Z,38.70
2023-03-04T02:43:26.833Z,37.70
2023-03-04T02:45:56.779Z,43.10
2023-03-04T02:48:25.160Z,37.70
2023-03-04T02:50:53.704Z,37.80
2023-03-04T02:53:22.509Z,39.00
2023-03-04T02:58:22.129Z,38.10
2023-03-04T03:00:53.153Z,38.00
2023-03-04T03:03:21.198Z,37.80
2023-03-04T03:05:49.942Z,43.60
2023-03-04T03:08:18.917Z,43.50
2023-03-04T03:10:50.377Z,38.60
2023-03-04T03:13:19.420Z,36.80
2023-03-04T03:15:50.046Z,37.10
2023-03-04T03:18:18.388Z,42.10
2023-03-04T03:20:46.845Z,39.20
2023-03-04T03:23:15.036Z,40.80
2023-03-04T03:25:43.159Z,35.50
2023-03-04T03:28:11.207Z,38.50
2023-03-04T03:30:39.517Z,36.00
2023-03-04T03:33:08.037Z,35.60
2023-03-04T03:35:38.428Z,34.30
2023-03-04T03:38:06.941Z,38.90
2023-03-04T03:40:37.001Z,37.00
2023-03-04T03:43:05.903Z,35.90
2023-03-04T03:45:33.841Z,37.40
2023-03-04T03:48:02.066Z,37.90
2023-03-04T03:50:30.366Z,41.90
2023-03-04T03:52:58.628Z,36.00
2023-03-04T03:55:26.951Z,38.10
2023-03-04T03:57:55.024Z,38.40
2023-03-04T04:00:23.397Z,37.20
2023-03-04T04:02:53.659Z,36.90
2023-03-04T04:05:21.766Z,40.50
2023-03-04T04:07:50.383Z,34.30
2023-03-04T04:10:20.554Z,38.70
2023-03-04T04:15:17.954Z,42.00
2023-03-04T04:17:46.428Z,43.10
2023-03-04T04:20:14.425Z,44.20
2023-03-04T04:22:42.986Z,42.60
2023-03-04T04:25:11.075Z,40.50
2023-03-04T04:27:39.533Z,41.00
2023-03-04T04:30:08.247Z,44.70
2023-03-04T04:32:36.339Z,45.20
2023-03-04T04:35:05.435Z,45.30
2023-03-04T04:37:33.561Z,41.40
2023-03-04T04:42:30.947Z,43.60
2023-03-04T04:45:00.859Z,40.70
2023-03-04T04:47:29.331Z,41.10
2023-03-04T04:49:57.429Z,41.60
2023-03-04T04:52:25.693Z,45.40
2023-03-04T04:54:53.783Z,44.50
2023-03-04T04:57:21.803Z,43.70
2023-03-04T04:59:49.881Z,43.60
2023-03-04T05:02:19.848Z,44.20
2023-03-04T05:04:47.784Z,38.10
2023-03-04T05:07:15.805Z,41.90
2023-03-04T05:09:43.994Z,45.50
2023-03-04T05:12:12.270Z,31.10
2023-03-04T05:14:43.380Z,44.60
2023-03-04T05:17:11.488Z,40.80
2023-03-04T05:19:39.473Z,43.10
2023-03-04T05:24:36.664Z,46.70
2023-03-04T05:27:04.654Z,45.90
2023-03-04T05:29:32.603Z,41.80
2023-03-04T05:32:00.668Z,44.60
2023-03-04T05:34:28.924Z,46.90
2023-03-04T05:36:56.995Z,45.20
2023-03-04T05:39:25.273Z,48.10
2023-03-04T05:41:53.474Z,46.60
2023-03-04T05:44:22.237Z,41.10
2023-03-04T05:46:50.365Z,41.30
2023-03-04T05:49:23.908Z,42.40
2023-03-04T05:51:51.914Z,41.20
2023-03-04T05:54:20.067Z,40.70
2023-03-04T05:56:48.323Z,47.40
2023-03-04T05:59:20.505Z,49.90
2023-03-04T06:01:48.544Z,44.50
2023-03-04T06:04:17.241Z,44.60
2023-03-04T06:06:47.468Z,42.20
2023-03-04T06:09:16.873Z,43.10
2023-03-04T06:11:44.851Z,41.80
2023-03-04T06:14:17.806Z,43.60
2023-03-04T06:16:49.562Z,45.30
2023-03-04T06:19:17.658Z,43.40
2023-03-04T06:21:47.215Z,40.10
2023-03-04T06:24:15.446Z,45.70
2023-03-04T06:26:43.512Z,42.70
2023-03-04T06:29:11.687Z,40.40
2023-03-04T06:31:41.938Z,45.00
2023-03-04T06:34:12.085Z,39.90
2023-03-04T06:36:40.035Z,45.70
2023-03-04T06:39:12.309Z,41.00
2023-03-04T06:41:40.747Z,44.40
2023-03-04T06:44:08.797Z,39.50
2023-03-04T06:46:38.302Z,42.90
2023-03-04T06:49:08.048Z,43.30
2023-03-04T06:51:36.341Z,39.70
2023-03-04T06:59:02.054Z,40.00
2023-03-04T07:01:30.127Z,39.60
2023-03-04T07:03:58.289Z,41.60
2023-03-04T07:06:27.260Z,36.40
2023-03-04T07:08:55.855Z,40.20
2023-03-04T07:11:24.023Z,41.10
2023-03-04T07:13:52.096Z,44.10
2023-03-04T07:16:22.577Z,35.70
2023-03-04T07:18:51.524Z,37.50
2023-03-04T07:21:25.392Z,36.00
2023-03-04T07:23:53.485Z,39.50
2023-03-04T07:26:21.594Z,43.90
2023-03-04T07:28:49.995Z,34.00
2023-03-04T07:31:23.768Z,36.80
2023-03-04T07:33:51.935Z,39.20
2023-03-04T07:36:20.136Z,37.80
2023-03-04T07:38:49.321Z,37.60
2023-03-04T07:43:45.555Z,41.60
2023-03-04T07:46:13.633Z,37.50
2023-03-04T07:48:42.739Z,43.90
2023-03-04T07:51:13.661Z,38.30
2023-03-04T07:56:12.383Z,40.50
2023-03-04T07:58:40.583Z,41.10
2023-03-04T08:01:10.605Z,38.10
2023-03-04T08:03:38.849Z,37.40
2023-03-04T08:06:08.438Z,36.40
2023-03-04T08:08:36.689Z,38.50
2023-03-04T08:11:09.286Z,38.90
2023-03-04T08:13:38.038Z,40.00
2023-03-04T08:16:18.651Z,36.10
2023-03-04T08:18:48.917Z,36.70
2023-03-04T08:21:19.362Z,38.30
2023-03-04T08:23:50.195Z,40.00
2023-03-04T08:26:25.994Z,36.20
2023-03-04T08:28:54.691Z,42.20
2023-03-04T08:31:22.998Z,36.30
2023-03-04T08:33:53.041Z,40.90
2023-03-04T08:36:21.058Z,39.70
2023-03-04T08:38:49.558Z,40.50
2023-03-04T08:41:18.073Z,37.30
2023-03-04T08:43:46.119Z,41.00
2023-03-04T08:46:14.622Z,46.10
2023-03-04T08:48:42.543Z,39.00
2023-03-04T08:51:12.344Z,43.70
2023-03-04T08:53:40.498Z,41.30
2023-03-04T08:56:09.879Z,49.90
2023-03-04T08:58:38.604Z,37.80
2023-03-04T09:01:09.547Z,43.20
2023-03-04T09:03:46.089Z,42.00
2023-03-04T09:08:44.985Z,37.40
2023-03-04T09:11:17.566Z,36.30
2023-03-04T09:13:46.123Z,42.50
2023-03-04T09:16:16.608Z,42.40
2023-03-04T09:18:45.008Z,43.90
2023-03-04T09:21:13.078Z,56.10
2023-03-04T09:23:41.618Z,47.60
2023-03-04T09:26:23.594Z,42.10
2023-03-04T09:28:56.317Z,40.20
2023-03-04T09:31:24.742Z,39.30
2023-03-04T09:33:53.156Z,43.40
2023-03-04T09:36:21.543Z,37.90
2023-03-04T09:38:50.750Z,37.20
2023-03-04T09:41:22.091Z,40.40
2023-03-04T09:43:50.195Z,38.60
2023-03-04T09:46:38.416Z,37.00
2023-03-04T09:49:07.542Z,35.70
2023-03-04T09:51:49.173Z,38.70
2023-03-04T09:54:41.890Z,37.20
2023-03-04T09:57:18.799Z,36.70
2023-03-04T09:59:56.832Z,36.30
2023-03-04T10:02:38.418Z,35.50
2023-03-04T10:05:06.559Z,33.70
2023-03-04T10:07:36.659Z,36.70
2023-03-04T10:10:10.810Z,34.80
2023-03-04T10:12:40.409Z,32.40
2023-03-04T10:15:19.070Z,35.10
2023-03-04T10:17:48.407Z,35.30
2023-03-04T10:20:26.983Z,36.30
2023-03-04T10:23:10.522Z,33.00
2023-03-04T10:25:46.757Z,33.60
2023-03-04T10:28:19.023Z,30.80
2023-03-04T10:30:52.996Z,34.10
2023-03-04T10:33:23.873Z,31.80
2023-03-04T10:36:30.547Z,38.50
2023-03-04T10:39:05.557Z,35.90
2023-03-04T10:41:34.088Z,31.90
2023-03-04T10:44:14.476Z,32.20
2023-03-04T10:46:44.205Z,32.80
2023-03-04T10:49:19.472Z,32.50
2023-03-04T10:52:30.754Z,31.20
2023-03-04T10:55:00.653Z,32.20
2023-03-04T10:57:36.850Z,33.70
2023-03-04T11:00:17.171Z,40.70
2023-03-04T11:02:46.695Z,36.00
2023-03-04T11:05:14.865Z,36.90
2023-03-04T11:07:55.149Z,40.60
2023-03-04T11:10:37.573Z,54.90
2023-03-04T11:13:11.634Z,36.90
2023-03-04T11:16:06.155Z,36.80
2023-03-04T11:18:52.580Z,39.10
2023-03-04T11:21:25.177Z,36.00
2023-03-04T11:24:01.689Z,37.50
2023-03-04T11:26:57.696Z,36.10
2023-03-04T11:29:38.966Z,34.40
2023-03-04T11:32:11.905Z,35.60
2023-03-04T11:34:44.589Z,34.10
2023-03-04T11:37:28.064Z,32.00
2023-03-04T11:40:08.892Z,36.10
2023-03-04T11:43:27.474Z,40.20
2023-03-04T11:46:37.563Z,33.90
2023-03-04T11:49:08.399Z,57.10
2023-03-04T11:51:39.883Z,37.60
2023-03-04T11:54:25.370Z,33.40
2023-03-04T11:56:57.368Z,37.20
2023-03-04T11:59:43.895Z,31.30
2023-03-04T12:02:15.351Z,34.60
2023-03-04T12:04:46.479Z,32.90
2023-03-04T12:07:52.734Z,34.90
2023-03-04T12:10:48.035Z,28.60
2023-03-04T12:13:21.137Z,28.20
2023-03-04T12:16:31.546Z,34.50
2023-03-04T12:19:24.404Z,36.60
2023-03-04T12:22:11.679Z,31.10
2023-03-04T12:25:15.180Z,32.30
2023-03-04T12:27:53.914Z,32.40
2023-03-04T12:31:00.026Z,32.40
2023-03-04T12:33:48.928Z,29.30
2023-03-04T12:36:17.107Z,32.80
2023-03-04T12:39:00.663Z,29.30
2023-03-04T12:41:37.956Z,32.00
2023-03-04T12:44:12.606Z,34.50
2023-03-04T12:46:46.447Z,33.00
2023-03-04T12:49:35.452Z,31.40
2023-03-04T12:52:23.387Z,32.90
2023-03-04T12:54:57.848Z,29.60
2023-03-04T12:57:27.904Z,30.70
2023-03-04T13:00:00.713Z,29.20
2023-03-04T13:02:55.146Z,28.30
2023-03-04T13:05:26.759Z,32.90
2023-03-04T13:08:04.595Z,28.20
2023-03-04T13:10:36.908Z,31.80
2023-03-04T13:13:05.046Z,36.50
2023-03-04T13:15:35.278Z,30.40
2023-03-04T13:18:33.407Z,29.00
2023-03-04T13:21:13.859Z,35.40
2023-03-04T13:23:42.708Z,33.10
2023-03-04T13:26:21.908Z,31.90
2023-03-04T13:29:11.359Z,34.20
2023-03-04T13:32:11.933Z,28.40
2023-03-04T13:34:53.876Z,36.30
2023-03-04T13:37:27.710Z,29.20
2023-03-04T13:40:23.339Z,32.70
2023-03-04T13:42:52.285Z,35.20
2023-03-04T13:45:37.177Z,31.40
2023-03-04T13:48:08.396Z,29.60
2023-03-04T13:50:46.656Z,33.00
2023-03-04T13:53:29.952Z,35.40
2023-03-04T13:56:12.051Z,31.50
2023-03-04T13:58:40.146Z,31.20
2023-03-04T14:01:25.940Z,33.10
2023-03-04T14:03:54.622Z,35.60
2023-03-04T14:06:30.171Z,33.60
2023-03-04T14:08:58.274Z,30.80
2023-03-04T14:11:33.160Z,30.60
2023-03-04T14:14:06.945Z,29.20
2023-03-04T14:16:40.245Z,34.10
2023-03-04T14:19:15.273Z,37.90
2023-03-04T14:21:47.199Z,32.00
2023-03-04T14:24:18.679Z,31.20
2023-03-04T14:26:47.083Z,31.70
2023-03-04T14:29:34.494Z,36.80
2023-03-04T14:32:02.951Z,30.90
2023-03-04T14:34:35.532Z,28.80
2023-03-04T14:37:05.804Z,27.70
2023-03-04T14:39:35.911Z,34.80
2023-03-04T14:42:10.070Z,34.00
2023-03-04T14:44:40.807Z,35.00
2023-03-04T14:47:15.005Z,31.30
2023-03-04T14:49:44.016Z,35.70
2023-03-04T14:52:42.233Z,27.50
2023-03-04T14:55:18.990Z,31.90
2023-03-04T14:57:48.932Z,35.20
2023-03-04T15:00:24.770Z,32.10
2023-03-04T15:03:21.735Z,33.90
2023-03-04T15:05:52.454Z,32.10
2023-03-04T15:08:25.958Z,30.20
2023-03-04T15:11:04.886Z,34.50
2023-03-04T15:13:39.861Z,34.70
2023-03-04T15:16:09.984Z,39.00
2023-03-04T15:18:38.411Z,34.70
2023-03-04T15:21:29.523Z,35.80
2023-03-04T15:23:57.851Z,42.00
2023-03-04T15:26:27.308Z,38.30
2023-03-04T15:28:56.093Z,37.50
2023-03-04T15:31:25.914Z,43.10
2023-03-04T15:33:55.006Z,38.00
2023-03-04T15:36:23.327Z,32.60
2023-03-04T15:38:52.790Z,36.50
2023-03-04T15:41:23.359Z,37.30
2023-03-04T15:43:54.719Z,33.90
2023-03-04T15:46:22.705Z,44.60
2023-03-04T15:48:50.701Z,35.50
2023-03-04T15:51:22.393Z,42.00
2023-03-04T15:53:54.144Z,43.40
2023-03-04T15:56:24.444Z,40.80
2023-03-04T15:58:57.167Z,49.00
2023-03-04T16:01:27.459Z,45.30
2023-03-04T16:03:55.824Z,50.60
2023-03-04T16:06:25.096Z,50.40
2023-03-04T16:08:54.264Z,53.30
2023-03-04T16:11:23.911Z,55.00
2023-03-04T16:13:51.995Z,54.50
2023-03-04T16:16:21.151Z,56.30
2023-03-04T16:18:49.773Z,54.10
2023-03-04T16:21:19.328Z,49.40
2023-03-04T16:26:18.146Z,52.10
2023-03-04T16:28:46.538Z,55.90
2023-03-04T16:31:15.314Z,52.80
2023-03-04T16:33:44.646Z,45.80
2023-03-04T16:36:23.431Z,53.20
2023-03-04T16:38:51.955Z,54.40
2023-03-04T16:41:20.970Z,59.40
2023-03-04T16:46:22.220Z,55.70
2023-03-04T16:48:50.338Z,51.20
2023-03-04T16:51:20.197Z,57.60
2023-03-04T16:53:49.770Z,55.50
2023-03-04T16:56:18.512Z,53.70
2023-03-04T16:58:47.274Z,55.50
2023-03-04T17:01:22.870Z,54.00
2023-03-04T17:03:51.000Z,56.60
2023-03-04T17:06:20.850Z,52.40
2023-03-04T17:11:22.421Z,55.70
2023-03-04T17:13:52.514Z,59.20
2023-03-04T17:16:21.500Z,50.10
2023-03-04T17:18:50.488Z,56.30
2023-03-04T17:21:23.700Z,51.90
2023-03-04T17:23:52.110Z,49.30
2023-03-04T17:26:22.793Z,58.60
2023-03-04T17:28:51.678Z,50.00
2023-03-04T17:31:19.925Z,51.80
2023-03-04T17:33:48.053Z,53.00
2023-03-04T17:36:16.590Z,52.50
2023-03-04T17:38:44.576Z,59.10
2023-03-04T17:41:16.185Z,47.50
2023-03-04T17:43:45.739Z,55.00
2023-03-04T17:46:14.887Z,57.50
2023-03-04T17:48:43.422Z,50.50
2023-03-04T17:51:12.624Z,50.10
2023-03-04T17:53:41.407Z,51.90
2023-03-04T17:56:11.296Z,54.60
2023-03-04T17:58:39.907Z,54.20
2023-03-04T18:01:18.956Z,59.30
2023-03-04T18:03:47.913Z,55.00
2023-03-04T18:06:17.348Z,55.80
2023-03-04T18:08:49.342Z,51.80
2023-03-04T18:11:18.302Z,49.30
2023-03-04T18:13:46.586Z,53.40
2023-03-04T18:16:16.651Z,50.80
2023-03-04T18:18:45.676Z,52.20
2023-03-04T18:21:14.809Z,50.70
2023-03-04T18:23:43.247Z,52.90
2023-03-04T18:26:11.932Z,52.80
2023-03-04T18:28:39.839Z,50.40
2023-03-04T18:31:08.063Z,50.60
2023-03-04T18:33:37.893Z,50.90
2023-03-04T18:36:08.185Z,52.20
2023-03-04T18:38:36.182Z,47.70
2023-03-04T18:41:06.400Z,49.70
2023-03-04T18:43:35.016Z,48.40
2023-03-04T18:46:06.925Z,52.00
2023-03-04T18:48:41.832Z,46.30
2023-03-04T18:51:09.876Z,48.20
2023-03-04T18:53:38.508Z,46.50
2023-03-04T18:56:15.275Z,48.10
2023-03-04T18:58:44.366Z,48.40
2023-03-04T19:01:12.850Z,44.40
2023-03-04T19:03:40.973Z,45.30
2023-03-04T19:06:09.294Z,40.20
2023-03-04T19:08:41.615Z,41.30
2023-03-04T19:11:10.089Z,39.30
2023-03-04T19:13:38.268Z,42.20
2023-03-04T19:16:07.206Z,41.90
2023-03-04T19:18:35.324Z,41.70
2023-03-04T19:21:05.323Z,35.80
2023-03-04T19:23:34.925Z,37.70
2023-03-04T19:26:03.788Z,38.80
2023-03-04T19:28:32.225Z,36.80
2023-03-04T19:31:05.713Z,40.70
2023-03-04T19:33:36.687Z,40.90
2023-03-04T19:36:05.856Z,38.00
2023-03-04T19:41:12.442Z,32.70
2023-03-04T19:43:40.799Z,36.70
2023-03-04T19:46:10.076Z,37.60
2023-03-04T19:48:38.773Z,35.10
2023-03-04T19:51:15.568Z,33.50
2023-03-04T19:53:43.587Z,35.70
2023-03-04T19:56:11.609Z,33.70
2023-03-04T19:58:40.102Z,32.40
2023-03-04T20:01:20.017Z,33.20
2023-03-04T20:03:48.504Z,29.00
2023-03-04T20:06:16.708Z,29.50
2023-03-04T20:08:44.681Z,34.40
2023-03-04T20:11:12.863Z,29.70
2023-03-04T20:13:46.077Z,28.90
2023-03-04T20:16:15.084Z,29.00
2023-03-04T20:21:17.704Z,25.50
2023-03-04T20:23:46.048Z,26.00
2023-03-04T20:26:14.184Z,28.90
2023-03-04T20:28:51.114Z,27.30
2023-03-04T20:31:23.400Z,25.50
2023-03-04T20:33:52.738Z,27.50
2023-03-04T20:36:22.630Z,27.30
2023-03-04T20:38:57.977Z,28.10
2023-03-04T20:41:30.661Z,27.10
2023-03-04T20:44:02.615Z,23.70
2023-03-04T20:46:32.340Z,24.40
2023-03-04T20:49:08.421Z,23.50
2023-03-04T20:51:36.980Z,25.00
2023-03-04T20:54:05.365Z,26.30
2023-03-04T20:56:33.493Z,24.70
2023-03-04T20:59:03.745Z,21.50
2023-03-04T21:01:32.077Z,20.50
2023-03-04T21:04:00.709Z,18.50
2023-03-04T21:06:29.293Z,23.20
2023-03-04T21:09:04.125Z,19.70
2023-03-04T21:11:32.608Z,20.80
2023-03-04T21:14:00.776Z,19.00
2023-03-04T21:16:30.158Z,21.60
2023-03-04T21:18:58.376Z,19.10
2023-03-04T21:21:31.112Z,19.70
2023-03-04T21:23:59.309Z,19.40
2023-03-04T21:26:27.493Z,18.90
2023-03-04T21:28:55.555Z,18.80
2023-03-04T21:31:25.629Z,17.40
2023-03-04T21:33:54.618Z,19.30
2023-03-04T21:36:23.395Z,17.50
2023-03-04T21:38:51.759Z,17.20
2023-03-04T21:41:22.277Z,17.50
2023-03-04T21:43:51.375Z,19.30
2023-03-04T21:48:48.322Z,20.20
2023-03-04T21:51:18.563Z,16.60
2023-03-04T21:53:47.387Z,20.10
2023-03-04T21:56:16.168Z,21.20
2023-03-04T21:58:45.860Z,19.70
2023-03-04T22:01:19.050Z,21.60
2023-03-04T22:03:51.616Z,20.00
2023-03-04T22:06:22.147Z,18.50
2023-03-04T22:08:55.019Z,19.70
2023-03-04T22:11:23.801Z,22.70
2023-03-04T22:16:27.501Z,19.60
2023-03-04T22:18:55.673Z,17.70
2023-03-04T22:21:23.800Z,19.10
2023-03-04T22:23:52.973Z,22.20
2023-03-04T22:26:26.884Z,19.10
2023-03-04T22:28:54.880Z,20.20
2023-03-04T22:31:30.729Z,18.90
2023-03-04T22:34:03.007Z,17.90
2023-03-04T22:36:36.000Z,21.80
2023-03-04T22:39:05.238Z,21.10
2023-03-04T22:41:35.112Z,20.50
2023-03-04T22:44:03.280Z,16.80
2023-03-04T22:46:36.370Z,20.60
2023-03-04T22:49:11.888Z,22.10
2023-03-04T22:51:44.014Z,22.00
2023-03-04T22:54:14.182Z,24.50
2023-03-04T22:56:42.757Z,24.00
2023-03-04T22:59:10.950Z,22.40
2023-03-04T23:01:39.957Z,22.60
2023-03-04T23:04:08.005Z,21.50
2023-03-04T23:06:37.799Z,20.70
2023-03-04T23:09:08.256Z,24.40
2023-03-04T23:11:36.967Z,28.20
2023-03-04T23:14:07.358Z,22.40
2023-03-04T23:16:44.548Z,24.10
2023-03-04T23:19:14.625Z,24.10
2023-03-04T23:21:42.771Z,33.20
2023-03-04T23:24:11.172Z,24.90
2023-03-04T23:26:40.118Z,22.90
2023-03-04T23:31:38.294Z,20.20
2023-03-04T23:34:07.877Z,16.70
2023-03-04T23:36:36.493Z,20.40
2023-03-04T23:39:05.691Z,16.90
2023-03-04T23:41:35.117Z,19.00
2023-03-04T23:44:03.475Z,13.50
2023-03-04T23:46:34.500Z,10.70
2023-03-04T23:49:02.729Z,10.60
2023-03-04T23:51:30.925Z,8.90
2023-03-04T23:53:59.443Z,5.90
2023-03-04T23:56:29.407Z,5.20
2023-03-04T23:58:58.556Z,6.00
